Aeroporto :
LOGIN :

Iscrizione | Disclaimer

   EN    FR    IT 

 










Sommario :    VFR   VFR Marginale   IFR   IFR Intensivo   IFR Molto Intensivo
Visibilità : 
Base nubi : 
>= 8 km
>= 3000ft
5 / 8 km
1000 / 3000 ft
1500m / 5 km
500 / 1000 ft
800 / 1500m
200 / 500 ft
< 800m
< 200 ft
Simboli :   Temporali  Nebbia  Neve Forte  Precipitazioni Forti  Vento > 20 kt
SIGMETs :   Varie  Temporali  Ghiacco  Turbolenza  Onda orograficha  Ceneri Vulcaniche






- Altitudine del aeroporto : 3 ft
- Codice IATA : LWR


EHLW - Leuuwarden Air Base

ULTIMO METAR :
  • 140525Z AUTO 19005KT 160V220 9999 OVC110 11/10 Q1012 BLU

METARs OBSOLETI :
  • 140455Z AUTO 19005KT 9999 OVC120 11/10 Q1012 BLU
  • 140425Z AUTO 19005KT 9999 OVC120 11/10 Q1012 BLU
  • 140355Z AUTO 20004KT 9999 OVC130 11/10 Q1011 BLU
  • 140325Z AUTO 21005KT 9999 OVC120 11/10 Q1011 BLU
  • 140255Z AUTO 23007KT 9999 OVC150 11/10 Q1011 BLU

TAF TAF EHLW
Valido dal 14 a 05 ore il 14 a 17 ore UTC


140417Z 1405/1417 VRB03KT 9999 BKN025
BECMG 1409/1412 09010KT
PROB40 1411/1416 4500 RA SHRA BKN020 SCT050CB



MetMap, La meteo Aeronautica in un colpo d'occhio ! - Copyright ORBIFLY Dicembre 2007 - Disclaimer

ORBIFLY MET'MAP TEAM :

Programmazione e sviluppo : Alexandra Zaïnal
Concezione e sviluppo : Baudouin d'Aumeries
Co-Programmazione e sviluppo : Marc-Olivier Méhu
Supporto tecnico e logistico : Manuel Goepfert
Aiuto per la traduzione : Arnaldo La Scala

Contatto : metmap@orbifly.com




FONTI E CREDITI :

   NOAA